LGVO weather

CLOSED Volos Army Airport
Volos, Magnesia, Greece

Public forecast

Using degrees Celsius for public forecast. Weather courtesy of forecast.io.

METAR (pilot weather report)

Closest report is Nea Anchialos Airport, 11.4 nm (21.1 km) SSW. Retrieved 2019/04/22 20:50 UTC (1 hour ago):

LGBL 222050Z 13008KT 9999 FEW030 BKN080 15/08 Q1020 RMK BKN180 BLU

TAF (pilot weather forecast)

Forecast is more than 12 hours old.

Closest forecast is Skiathos Island National Airport, 29.9 nm (55.5 km) ESE. Retrieved 2012/09/27 00:18 UTC (7 years ago):

TAF LGSK 272300Z 2800/2909 01010KT 9999 FEW020